Time;durP1;ratioP1;P1;durP2;ratioP2;P2;SDS_P1;SDS_P2;PMS_P1;PMS_P2;Temp;Humidity;BMP_temperature;BMP_pressure;BME280_temperature;BME280_humidity;BME280_pressure;Samples;Min_cycle;Max_cycle;Signal;HPM_P1;HPM_P2
2023/09/23 00:00:08;;;;;;;0.80;0.30;;;;;;;-143.84;99.28;45090.97;5090842;28;20500;-59
2023/09/23 00:02:38;;;;;;;0.80;0.30;;;;;;;-143.84;99.52;45081.44;5090845;28;20522;-59
2023/09/23 00:05:11;;;;;;;0.80;0.30;;;;;;;-143.84;99.71;45110.00;5090698;28;20456;-59
2023/09/23 00:07:39;;;;;;;0.80;0.30;;;;;;;-143.84;99.83;45119.53;5090764;28;20444;-59
2023/09/23 00:10:08;;;;;;;0.80;0.30;;;;;;;-143.84;99.77;45108.09;5090549;28;20530;-59
2023/09/23 00:12:37;;;;;;;0.80;0.40;;;;;;;-143.84;100.00;45117.63;5090708;28;20459;-59
2023/09/23 00:15:06;;;;;;;0.80;0.30;;;;;;;-143.84;100.00;45110.00;5090794;28;20515;-59
2023/09/23 00:17:33;;;;;;;0.80;0.30;;;;;;;-143.84;100.00;45155.69;5089606;28;20452;-59
2023/09/23 00:20:06;;;;;;;0.80;0.30;;;;;;;-143.84;100.00;45121.44;5089073;28;20495;-59
2023/09/23 00:22:34;;;;;;;0.80;0.40;;;;;;;-143.84;100.00;45127.13;5089276;28;20528;-59
2023/09/23 00:25:01;;;;;;;0.80;0.40;;;;;;;-143.84;100.00;45077.63;5089044;28;20444;-59
2023/09/23 00:27:30;;;;;;;0.80;0.30;;;;;;;-143.84;100.00;45113.81;5089191;28;20452;-59
2023/09/23 00:29:58;;;;;;;0.80;0.30;;;;;;;-143.84;100.00;45111.91;5089184;28;20459;-59
2023/09/23 00:32:25;;;;;;;0.80;0.30;;;;;;;-143.84;100.00;45113.81;5089650;28;20949;-59
2023/09/23 00:34:53;;;;;;;0.80;0.30;;;;;;;-143.84;100.00;45121.44;5090272;28;20443;-59
2023/09/23 00:37:20;;;;;;;0.80;0.30;;;;;;;-143.84;100.00;45130.94;5090267;28;20501;-59
2023/09/23 00:39:48;;;;;;;0.80;0.40;;;;;;;-143.84;100.00;45119.53;5090015;28;20945;-59
2023/09/23 00:42:17;;;;;;;0.80;0.30;;;;;;;-143.84;100.00;45102.38;5090170;28;20529;-59
2023/09/23 00:44:44;;;;;;;0.80;0.40;;;;;;;-143.84;100.00;45121.44;5090190;28;20436;-59
2023/09/23 00:47:14;;;;;;;0.80;0.30;;;;;;;-143.84;100.00;45110.00;5089791;28;20514;-59
2023/09/23 00:49:44;;;;;;;0.80;0.30;;;;;;;-143.84;100.00;45108.09;5090364;28;20459;-59
2023/09/23 00:52:13;;;;;;;0.80;0.30;;;;;;;-143.84;100.00;45098.56;5089987;28;20447;-59
2023/09/23 00:54:46;;;;;;;0.80;0.30;;;;;;;-143.84;100.00;45100.47;5089870;28;21007;-59
2023/09/23 00:57:14;;;;;;;0.80;0.30;;;;;;;-143.84;100.00;45125.22;5089892;28;20475;-59
2023/09/23 00:59:43;;;;;;;0.80;0.30;;;;;;;-143.84;100.00;45108.09;5089983;28;20436;-59
2023/09/23 01:02:12;;;;;;;0.80;0.30;;;;;;;-143.84;100.00;45094.78;5089752;28;20436;-59
2023/09/23 01:04:41;;;;;;;0.80;0.30;;;;;;;-143.84;100.00;45144.28;5089789;28;20444;-59
2023/09/23 01:07:11;;;;;;;0.80;0.40;;;;;;;-143.84;100.00;45100.47;5089849;28;20458;-59
2023/09/23 01:09:38;;;;;;;0.80;0.40;;;;;;;-143.84;100.00;45087.16;5089573;28;20940;-59
2023/09/23 01:12:07;;;;;;;0.80;0.30;;;;;;;-143.84;100.00;45083.34;5089577;28;20954;-59
2023/09/23 01:14:34;;;;;;;0.80;0.30;;;;;;;-143.84;100.00;45106.19;5089507;28;20440;-59
2023/09/23 01:17:09;;;;;;;0.80;0.30;;;;;;;-143.84;100.00;45094.78;5089300;28;20479;-59
2023/09/23 01:19:37;;;;;;;0.80;0.30;;;;;;;-143.84;100.00;45085.25;5089181;28;20627;-59
2023/09/23 01:22:06;;;;;;;0.80;0.30;;;;;;;-143.84;100.00;45121.44;5089374;28;20482;-59
2023/09/23 01:24:35;;;;;;;0.80;0.30;;;;;;;-143.84;100.00;45108.09;5089180;28;20977;-59
2023/09/23 01:27:03;;;;;;;0.80;0.40;;;;;;;-143.84;100.00;45121.44;5089415;28;20447;-59
2023/09/23 01:29:31;;;;;;;0.80;0.40;;;;;;;-143.84;100.00;45115.72;5089042;28;20523;-59
2023/09/23 01:32:12;;;;;;;0.80;0.30;;;;;;;-143.84;100.00;45117.63;5089244;28;20848;-59
2023/09/23 01:34:40;;;;;;;0.80;0.30;;;;;;;-143.84;100.00;45106.19;5089119;28;20805;-59
2023/09/23 01:37:07;;;;;;;0.80;0.40;;;;;;;-143.84;100.00;45094.78;5089437;28;20483;-59
2023/09/23 01:39:39;;;;;;;0.80;0.30;;;;;;;-143.84;100.00;45098.56;5089172;28;20948;-59
2023/09/23 01:42:07;;;;;;;0.80;0.30;;;;;;;-143.84;100.00;45096.66;5089115;28;20907;-59
2023/09/23 01:44:34;;;;;;;0.80;0.30;;;;;;;-143.84;100.00;45104.28;5088887;28;20990;-59
2023/09/23 01:47:01;;;;;;;0.80;0.30;;;;;;;-143.84;100.00;45129.03;5089010;28;20448;-59
2023/09/23 01:49:28;;;;;;;0.80;0.30;;;;;;;-143.84;100.00;45092.88;5088841;28;20444;-59
2023/09/23 01:51:56;;;;;;;0.80;0.30;;;;;;;-143.84;100.00;45102.38;5088871;28;20982;-59
2023/09/23 01:54:23;;;;;;;0.80;0.30;;;;;;;-143.84;100.00;45106.19;5088591;28;20436;-59
2023/09/23 01:56:51;;;;;;;0.80;0.50;;;;;;;-143.84;100.00;45138.56;5088958;28;20808;-59
2023/09/23 01:59:18;;;;;;;0.80;0.30;;;;;;;-143.84;100.00;45113.81;5088623;28;20435;-59
2023/09/23 02:01:45;;;;;;;0.80;0.30;;;;;;;-143.84;100.00;45108.09;5088892;28;20489;-59
2023/09/23 02:04:13;;;;;;;0.80;0.30;;;;;;;-143.84;100.00;45098.56;5087824;28;20440;-59
2023/09/23 02:06:43;;;;;;;0.80;0.40;;;;;;;-143.84;100.00;45090.97;5088491;28;20589;-59
2023/09/23 02:09:10;;;;;;;0.80;0.30;;;;;;;-143.84;100.00;45087.16;5088786;28;20867;-59
2023/09/23 02:11:38;;;;;;;0.80;0.30;;;;;;;-143.84;100.00;45150.00;5088787;28;20447;-59
2023/09/23 02:14:07;;;;;;;0.80;0.30;;;;;;;-143.84;100.00;45098.56;5088924;28;20450;-59
2023/09/23 02:16:34;;;;;;;0.80;0.30;;;;;;;-143.84;100.00;45108.09;5088560;28;20572;-58
2023/09/23 02:19:02;;;;;;;0.80;0.30;;;;;;;-143.84;100.00;45094.78;5088562;28;20525;-58
2023/09/23 02:21:30;;;;;;;0.80;0.30;;;;;;;-143.84;100.00;45092.88;5088522;28;20501;-58
2023/09/23 02:23:57;;;;;;;0.80;0.30;;;;;;;-143.84;100.00;45115.72;5087852;28;20448;-58
2023/09/23 02:26:25;;;;;;;0.80;0.30;;;;;;;-143.84;100.00;45115.72;5088080;28;20470;-58
2023/09/23 02:28:52;;;;;;;0.80;0.30;;;;;;;-143.84;100.00;45092.88;5087883;28;20436;-58
2023/09/23 02:31:20;;;;;;;0.80;0.30;;;;;;;-143.84;100.00;45111.91;5088749;28;20945;-58
2023/09/23 02:33:48;;;;;;;0.80;0.30;;;;;;;-143.84;100.00;45121.44;5088691;28;20995;-58
2023/09/23 02:36:15;;;;;;;0.90;0.53;;;;;;;-143.84;100.00;45119.53;5088417;28;20475;-58
2023/09/23 02:38:43;;;;;;;0.80;0.30;;;;;;;-143.84;100.00;45106.19;5088239;28;20551;-58
2023/09/23 02:41:10;;;;;;;0.80;0.30;;;;;;;-143.84;100.00;45129.03;5088219;28;21037;-58
2023/09/23 02:43:38;;;;;;;0.80;0.30;;;;;;;-143.84;100.00;45104.28;5088151;28;20435;-58
2023/09/23 02:46:06;;;;;;;0.80;0.30;;;;;;;-143.84;100.00;45098.56;5087465;28;20448;-58
2023/09/23 02:48:48;;;;;;;0.80;0.30;;;;;;;-143.84;100.00;45104.28;5087718;28;20444;-58
2023/09/23 02:51:17;;;;;;;0.80;0.30;;;;;;;-143.84;100.00;45096.66;5087462;28;20848;-58
2023/09/23 02:53:45;;;;;;;0.80;0.60;;;;;;;-143.84;100.00;45129.03;5086739;28;20441;-58
2023/09/23 02:56:12;;;;;;;0.80;0.30;;;;;;;-143.84;100.00;45140.47;5087703;28;21024;-58
2023/09/23 02:58:40;;;;;;;0.80;0.30;;;;;;;-143.84;100.00;45130.94;5087377;28;20432;-58
2023/09/23 03:01:09;;;;;;;0.80;0.30;;;;;;;-143.84;100.00;45108.09;5087508;28;20455;-58
2023/09/23 03:03:40;;;;;;;0.80;0.30;;;;;;;-143.84;100.00;45132.84;5087945;28;20837;-58
2023/09/23 03:06:08;;;;;;;0.80;0.30;;;;;;;-143.84;100.00;45110.00;5088061;28;20452;-58
2023/09/23 03:08:37;;;;;;;1.33;0.40;;;;;;;-143.84;100.00;45106.19;5088171;28;20928;-58
2023/09/23 03:11:09;;;;;;;0.80;0.43;;;;;;;-143.84;100.00;45115.72;5086969;28;20447;-58
2023/09/23 03:13:37;;;;;;;0.80;0.30;;;;;;;-143.84;100.00;45094.78;5086592;28;20447;-58
2023/09/23 03:16:08;;;;;;;0.80;0.30;;;;;;;-143.84;100.00;45121.44;5088379;28;20471;-59
2023/09/23 03:18:44;;;;;;;0.80;0.30;;;;;;;-143.84;100.00;45119.53;5090102;28;21090;-59
2023/09/23 03:21:11;;;;;;;0.80;0.30;;;;;;;-143.84;100.00;45119.53;5090603;28;20548;-58
2023/09/23 03:23:39;;;;;;;0.80;0.30;;;;;;;-143.84;100.00;45071.91;5089941;28;20436;-58
2023/09/23 03:26:08;;;;;;;0.80;0.30;;;;;;;-143.84;100.00;45113.81;5090853;28;20439;-59
2023/09/23 03:28:36;;;;;;;0.80;0.40;;;;;;;-143.84;100.00;45136.66;5091643;28;20440;-58
2023/09/23 03:31:05;;;;;;;0.80;0.30;;;;;;;-143.84;100.00;45130.94;5091370;28;20444;-58
2023/09/23 03:33:32;;;;;;;0.80;0.30;;;;;;;-143.84;100.00;45110.00;5091542;28;20444;-58
2023/09/23 03:36:01;;;;;;;0.80;0.30;;;;;;;-143.84;100.00;45117.63;5091507;28;20459;-58
2023/09/23 03:38:29;;;;;;;0.80;0.30;;;;;;;-143.84;100.00;45136.66;5090799;28;20848;-58
2023/09/23 03:40:59;;;;;;;0.80;0.30;;;;;;;-143.84;100.00;45106.19;5090813;28;20527;-58
2023/09/23 03:43:27;;;;;;;0.80;0.40;;;;;;;-143.84;100.00;45123.34;5091150;28;20964;-59
2023/09/23 03:45:54;;;;;;;0.80;0.30;;;;;;;-143.84;100.00;45100.47;5091079;28;20845;-58
2023/09/23 03:48:21;;;;;;;0.80;0.30;;;;;;;-143.84;100.00;45127.13;5091291;28;20436;-58
2023/09/23 03:50:51;;;;;;;0.80;0.30;;;;;;;-143.84;100.00;45102.38;5091173;28;20452;-58
2023/09/23 03:53:21;;;;;;;0.80;0.30;;;;;;;-143.84;100.00;45085.25;5091210;28;20930;-58
2023/09/23 03:55:49;;;;;;;0.80;0.30;;;;;;;-143.84;100.00;45085.25;5091079;28;21019;-59
2023/09/23 03:58:17;;;;;;;0.80;0.30;;;;;;;-143.84;100.00;45085.25;5090849;28;20935;-58
2023/09/23 04:00:44;;;;;;;0.80;0.40;;;;;;;-143.84;100.00;45102.38;5091087;28;20531;-58
2023/09/23 04:03:11;;;;;;;0.80;0.33;;;;;;;-143.84;100.00;45110.00;5090905;28;20482;-58
2023/09/23 04:05:38;;;;;;;0.80;0.30;;;;;;;-143.84;100.00;45089.06;5091036;28;21053;-59
2023/09/23 04:08:06;;;;;;;0.80;0.30;;;;;;;-143.84;100.00;45104.28;5090673;28;20432;-59
2023/09/23 04:10:39;;;;;;;0.80;0.30;;;;;;;-143.84;100.00;45104.28;5090812;28;20451;-58
2023/09/23 04:13:07;;;;;;;0.80;0.40;;;;;;;-143.84;100.00;45098.56;5090603;28;20447;-58
2023/09/23 04:15:34;;;;;;;0.80;0.30;;;;;;;-143.84;100.00;45111.91;5090969;28;20535;-58
2023/09/23 04:18:05;;;;;;;0.80;0.30;;;;;;;-143.84;100.00;45106.19;5090364;28;20491;-59
2023/09/23 04:20:32;;;;;;;0.80;0.33;;;;;;;-143.84;100.00;45106.19;5090521;28;20809;-58
2023/09/23 04:22:59;;;;;;;0.80;0.30;;;;;;;-143.84;100.00;45100.47;5090521;28;20448;-58
2023/09/23 04:25:26;;;;;;;0.80;0.30;;;;;;;-143.84;100.00;45098.56;5090844;28;20432;-58
2023/09/23 04:27:55;;;;;;;0.80;0.30;;;;;;;-143.84;100.00;45113.81;5089643;28;20440;-59
2023/09/23 04:30:25;;;;;;;0.80;0.30;;;;;;;-143.84;100.00;45096.66;5090400;28;20934;-58
2023/09/23 04:32:52;;;;;;;0.80;0.40;;;;;;;-143.84;100.00;45110.00;5090453;28;20444;-58
2023/09/23 04:35:19;;;;;;;0.80;0.40;;;;;;;-143.84;100.00;45092.88;5090096;28;20454;-58
2023/09/23 04:37:46;;;;;;;0.80;0.30;;;;;;;-143.84;100.00;45106.19;5089750;28;20557;-58
2023/09/23 04:40:15;;;;;;;0.80;0.30;;;;;;;-143.84;100.00;45110.00;5089995;28;20491;-58
2023/09/23 04:42:44;;;;;;;0.80;0.40;;;;;;;-143.84;100.00;45104.28;5090061;28;20440;-58
2023/09/23 04:45:12;;;;;;;0.80;0.40;;;;;;;-143.84;100.00;45117.63;5090364;28;20458;-58
2023/09/23 04:47:40;;;;;;;0.80;0.30;;;;;;;-143.84;100.00;45106.19;5089777;28;20497;-58
2023/09/23 04:50:11;;;;;;;0.80;0.30;;;;;;;-143.84;100.00;45129.03;5089833;28;20523;-58
2023/09/23 04:52:39;;;;;;;0.80;0.30;;;;;;;-143.84;100.00;45111.91;5089984;28;21340;-58
2023/09/23 04:55:07;;;;;;;0.80;0.30;;;;;;;-143.84;100.00;45117.63;5090088;28;20494;-58
2023/09/23 04:57:35;;;;;;;0.80;0.30;;;;;;;-143.84;100.00;45083.34;5090042;28;20516;-58
2023/09/23 05:00:04;;;;;;;0.80;0.30;;;;;;;-143.84;100.00;45129.03;5089942;28;20792;-58
2023/09/23 05:02:33;;;;;;;0.80;0.30;;;;;;;-143.84;100.00;45090.97;5090095;28;20448;-58
2023/09/23 05:05:00;;;;;;;0.80;0.57;;;;;;;-143.84;100.00;45100.47;5089542;28;20480;-58
2023/09/23 05:07:28;;;;;;;0.80;0.30;;;;;;;-143.84;100.00;45110.00;5089541;28;20459;-58
2023/09/23 05:09:55;;;;;;;0.80;0.30;;;;;;;-143.84;100.00;45146.19;5089499;28;20444;-58
2023/09/23 05:12:23;;;;;;;0.80;0.30;;;;;;;-143.84;100.00;45104.28;5089407;28;20498;-58
2023/09/23 05:14:51;;;;;;;0.80;0.40;;;;;;;-143.84;100.00;45098.56;5089316;28;20451;-58
2023/09/23 05:17:18;;;;;;;0.80;0.30;;;;;;;-143.84;100.00;45134.75;5089492;28;20582;-58
2023/09/23 05:19:47;;;;;;;0.80;0.30;;;;;;;-143.84;100.00;45098.56;5089263;28;21093;-58
2023/09/23 05:22:14;;;;;;;0.80;0.40;;;;;;;-143.84;100.00;45119.53;5089120;28;20535;-58
2023/09/23 05:24:47;;;;;;;0.80;0.30;;;;;;;-143.84;100.00;45102.38;5089608;28;20424;-58
2023/09/23 05:27:14;;;;;;;0.80;0.30;;;;;;;-143.84;100.00;45100.47;5089245;28;20509;-58
2023/09/23 05:29:42;;;;;;;0.80;0.30;;;;;;;-143.84;100.00;45094.78;5089376;28;20863;-58
2023/09/23 05:32:10;;;;;;;0.80;0.30;;;;;;;-143.84;100.00;45102.38;5089231;28;20964;-58
2023/09/23 05:34:39;;;;;;;0.80;0.40;;;;;;;-143.84;100.00;45108.09;5089375;28;20528;-58
2023/09/23 05:37:12;;;;;;;0.80;0.30;;;;;;;-143.84;100.00;45121.44;5089162;28;20590;-58
2023/09/23 05:39:44;;;;;;;0.80;0.30;;;;;;;-143.84;100.00;45092.88;5088917;28;21035;-58
2023/09/23 05:42:13;;;;;;;0.80;0.30;;;;;;;-143.84;100.00;45085.25;5088896;28;20505;-58
2023/09/23 05:44:40;;;;;;;2.93;0.60;;;;;;;-143.84;100.00;45110.00;5088865;28;20450;-58
2023/09/23 05:47:08;;;;;;;0.80;0.30;;;;;;;-143.84;100.00;45106.19;5089020;28;20444;-58
2023/09/23 05:49:36;;;;;;;0.80;0.40;;;;;;;-143.84;99.32;45125.22;5089082;28;20931;-58
2023/09/23 05:52:04;;;;;;;0.80;0.30;;;;;;;-143.84;99.35;45104.28;5089049;28;20439;-58
2023/09/23 05:54:33;;;;;;;0.80;0.30;;;;;;;-143.84;98.95;45129.03;5089035;28;20443;-58
2023/09/23 05:57:00;;;;;;;0.80;0.30;;;;;;;-143.84;98.97;45117.63;5088844;28;21012;-58
2023/09/23 05:59:27;;;;;;;0.80;0.30;;;;;;;-143.84;98.75;45136.66;5088708;28;20436;-58
2023/09/23 06:01:54;;;;;;;0.80;0.30;;;;;;;-143.84;98.83;45130.94;5088935;28;21122;-58
2023/09/23 06:04:22;;;;;;;0.80;0.33;;;;;;;-143.84;99.01;45119.53;5088988;28;20989;-58
2023/09/23 06:06:49;;;;;;;0.80;0.30;;;;;;;-143.84;98.41;45104.28;5088777;28;20576;-58
2023/09/23 06:09:16;;;;;;;0.80;0.37;;;;;;;-143.84;98.35;45079.53;5088979;28;20511;-58
2023/09/23 06:11:45;;;;;;;0.80;0.30;;;;;;;-143.84;97.50;45083.34;5088644;28;21113;-58
2023/09/23 06:14:12;;;;;;;0.80;0.30;;;;;;;-143.84;97.40;45108.09;5088768;28;20505;-58
2023/09/23 06:16:39;;;;;;;0.80;0.30;;;;;;;-143.84;96.73;45100.47;5088833;28;20436;-58
2023/09/23 06:19:06;;;;;;;0.80;0.30;;;;;;;-143.84;96.07;45094.78;5088798;28;20484;-58
2023/09/23 06:21:33;;;;;;;0.80;0.30;;;;;;;-143.84;95.37;45083.34;5088661;28;20938;-58
2023/09/23 06:24:00;;;;;;;0.80;0.30;;;;;;;-143.84;93.91;45098.56;5088802;28;20448;-58
2023/09/23 06:26:28;;;;;;;0.80;0.30;;;;;;;-143.84;93.75;45085.25;5088701;28;20497;-58
2023/09/23 06:28:56;;;;;;;0.80;0.40;;;;;;;-143.84;93.28;45096.66;5088685;28;20439;-58
2023/09/23 06:31:23;;;;;;;0.80;0.40;;;;;;;-143.84;92.93;45098.56;5088422;28;20444;-58
2023/09/23 06:33:50;;;;;;;0.80;0.40;;;;;;;-143.84;91.21;45089.06;5088351;28;20448;-58
2023/09/23 06:36:18;;;;;;;0.80;0.30;;;;;;;-143.84;90.16;45083.34;5088502;28;20432;-58
2023/09/23 06:38:45;;;;;;;0.80;0.50;;;;;;;-143.84;88.84;45075.72;5088137;28;20863;-58
2023/09/23 06:41:12;;;;;;;0.80;0.30;;;;;;;-143.84;87.39;45060.50;5088460;28;20440;-58
2023/09/23 06:43:40;;;;;;;0.80;0.30;;;;;;;-143.84;87.73;45071.91;5086926;28;20443;-58
2023/09/23 06:46:08;;;;;;;0.80;0.30;;;;;;;-143.84;88.19;45075.72;5068558;28;20475;-58
2023/09/23 06:48:35;;;;;;;0.80;0.30;;;;;;;-143.84;86.70;45058.59;5068184;28;20947;-58
2023/09/23 06:51:04;;;;;;;0.80;0.30;;;;;;;-143.84;84.94;45089.06;5070119;28;20514;-58
2023/09/23 06:53:31;;;;;;;0.80;0.30;;;;;;;-143.84;84.29;45049.06;5071893;28;20494;-58
2023/09/23 06:55:58;;;;;;;0.80;0.30;;;;;;;-143.84;84.16;45052.88;5072243;28;20437;-58
2023/09/23 06:58:25;;;;;;;1.17;0.93;;;;;;;-143.84;84.23;45075.72;5071807;28;20488;-58
2023/09/23 07:00:53;;;;;;;0.80;0.40;;;;;;;-143.84;84.20;45060.50;5072255;28;20459;-58
2023/09/23 07:03:22;;;;;;;0.80;0.30;;;;;;;-143.84;83.35;45081.44;5071716;28;20501;-58
2023/09/23 07:05:49;;;;;;;0.80;0.30;;;;;;;-143.84;83.50;45030.03;5071574;28;20452;-58
2023/09/23 07:08:16;;;;;;;0.80;0.30;;;;;;;-143.84;83.61;45045.25;5077941;28;20452;-58
2023/09/23 07:10:43;;;;;;;0.80;0.30;;;;;;;-143.84;83.86;45068.13;5094711;28;20539;-58
2023/09/23 07:13:10;;;;;;;0.80;0.30;;;;;;;-143.84;84.11;45049.06;5100017;28;20637;-58
2023/09/23 07:15:38;;;;;;;0.80;0.40;;;;;;;-143.84;84.49;45087.16;5097850;28;20501;-58
2023/09/23 07:18:06;;;;;;;0.80;0.30;;;;;;;-143.84;84.87;45090.97;5099243;28;20500;-58
2023/09/23 07:20:35;;;;;;;0.80;0.40;;;;;;;-143.84;85.25;45064.31;5094286;28;20436;-58
2023/09/23 07:23:02;;;;;;;0.80;0.30;;;;;;;-143.84;85.88;45064.31;5101792;28;20443;-58
2023/09/23 07:25:30;;;;;;;0.80;0.40;;;;;;;-143.84;86.19;45049.06;5099524;28;20937;-58
2023/09/23 07:27:59;;;;;;;0.80;0.30;;;;;;;-143.84;86.59;45043.34;5093124;28;20458;-58
2023/09/23 07:30:26;;;;;;;0.80;0.30;;;;;;;-143.84;86.65;45052.88;5097731;28;20516;-58
2023/09/23 07:32:54;;;;;;;0.80;0.57;;;;;;;-143.84;86.44;45041.44;5091373;28;20870;-58
2023/09/23 07:35:21;;;;;;;0.80;0.50;;;;;;;-143.84;86.08;45068.13;5091336;28;20826;-59
2023/09/23 07:37:49;;;;;;;0.80;0.30;;;;;;;-143.84;86.08;45092.88;5090679;28;20541;-58
2023/09/23 07:40:17;;;;;;;0.80;0.30;;;;;;;-143.84;87.08;45041.44;5091336;28;20457;-58
2023/09/23 07:42:44;;;;;;;0.80;0.43;;;;;;;-143.84;86.94;45049.06;5091170;28;20436;-58
2023/09/23 07:45:11;;;;;;;0.80;0.30;;;;;;;-143.84;86.74;45054.78;5090816;28;21316;-58
2023/09/23 07:47:38;;;;;;;0.80;0.33;;;;;;;-143.84;86.71;45047.16;5091137;28;21220;-58
2023/09/23 07:50:06;;;;;;;0.80;0.30;;;;;;;-143.84;84.65;45039.53;5091030;28;20444;-58
2023/09/23 07:52:34;;;;;;;0.80;0.30;;;;;;;-143.84;83.52;45071.91;5091061;28;20493;-58
2023/09/23 07:55:04;;;;;;;0.80;0.30;;;;;;;-143.84;81.28;45070.00;5090809;28;20801;-57
2023/09/23 07:57:32;;;;;;;0.80;0.30;;;;;;;-143.84;81.04;45049.06;5090820;28;20996;-57
2023/09/23 07:59:59;;;;;;;0.80;0.30;;;;;;;-143.84;80.45;45054.78;5090782;28;20447;-57
2023/09/23 08:02:27;;;;;;;0.80;0.30;;;;;;;-143.84;80.25;45035.75;5090712;28;20983;-57
2023/09/23 08:04:54;;;;;;;0.80;0.30;;;;;;;-143.84;79.50;45024.31;5090944;28;20513;-57
2023/09/23 08:07:21;;;;;;;0.80;0.30;;;;;;;-143.84;80.07;45041.44;5090637;28;20436;-57
2023/09/23 08:09:48;;;;;;;0.80;0.30;;;;;;;-143.84;77.37;45045.25;5090420;28;20933;-57
2023/09/23 08:12:17;;;;;;;0.80;0.30;;;;;;;-143.84;77.72;45030.03;5090371;28;20458;-58
2023/09/23 08:14:44;;;;;;;1.17;0.50;;;;;;;-143.84;77.34;45022.41;5090452;28;20471;-58
2023/09/23 08:17:11;;;;;;;0.80;0.30;;;;;;;-143.84;75.97;45035.75;5090599;28;20470;-58
2023/09/23 08:19:38;;;;;;;0.80;0.30;;;;;;;-143.84;75.61;45035.75;5090360;28;20495;-57
2023/09/23 08:22:05;;;;;;;0.90;0.60;;;;;;;-143.84;74.10;45018.59;5090417;28;20475;-57
2023/09/23 08:24:33;;;;;;;0.80;0.30;;;;;;;-143.84;73.66;45049.06;5090483;28;20432;-57
2023/09/23 08:27:00;;;;;;;0.80;0.30;;;;;;;-143.84;72.56;45041.44;5090452;28;20444;-57
2023/09/23 08:29:29;;;;;;;0.80;0.30;;;;;;;-143.84;74.31;45039.53;5090273;28;20476;-58
2023/09/23 08:31:56;;;;;;;2.00;0.77;;;;;;;-143.84;72.80;45005.28;5090074;28;20452;-58
2023/09/23 08:34:24;;;;;;;0.80;0.30;;;;;;;-143.84;71.10;45022.41;5090217;28;20435;-58
2023/09/23 08:36:51;;;;;;;0.80;0.30;;;;;;;-143.84;71.58;45005.28;5090450;28;20480;-58
2023/09/23 08:39:19;;;;;;;0.80;0.30;;;;;;;-143.84;71.08;44995.75;5090199;28;20968;-58
2023/09/23 08:41:52;;;;;;;0.80;0.30;;;;;;;-143.84;71.68;44999.56;5080067;28;20459;-57
2023/09/23 08:44:22;;;;;;;0.80;0.40;;;;;;;-143.84;70.14;45003.38;5080437;28;20536;-57
2023/09/23 08:46:53;;;;;;;0.80;0.30;;;;;;;-143.84;70.25;45022.41;5087954;28;20543;-57
2023/09/23 08:49:22;;;;;;;0.90;0.53;;;;;;;-143.84;70.88;45003.38;5090101;28;20450;-57
2023/09/23 08:51:54;;;;;;;0.80;0.30;;;;;;;-143.84;68.92;45003.38;5089866;28;20518;-57
2023/09/23 08:54:23;;;;;;;0.80;0.30;;;;;;;-143.84;69.94;44986.22;5090087;28;20937;-57
2023/09/23 08:56:50;;;;;;;0.80;0.30;;;;;;;-143.84;69.30;45026.22;5089858;28;20447;-57
2023/09/23 08:59:18;;;;;;;0.80;0.30;;;;;;;-143.84;69.86;45016.69;5089816;28;20479;-57
2023/09/23 09:01:45;;;;;;;0.80;0.30;;;;;;;-143.84;68.79;44984.31;5089437;28;20808;-57
2023/09/23 09:04:15;;;;;;;0.80;0.40;;;;;;;-143.84;69.09;44997.66;5089737;28;20513;-57
2023/09/23 09:06:52;;;;;;;0.80;0.30;;;;;;;-143.84;69.82;45003.38;5089466;28;20586;-57
2023/09/23 09:09:20;;;;;;;0.80;0.30;;;;;;;-143.84;68.04;44982.41;5089541;28;20440;-57
2023/09/23 09:11:47;;;;;;;0.80;0.30;;;;;;;-143.84;68.25;45003.38;5089476;28;20536;-57
2023/09/23 09:14:16;;;;;;;0.80;0.30;;;;;;;-143.84;68.48;44991.94;5088864;28;20453;-57
2023/09/23 09:16:43;;;;;;;0.80;0.30;;;;;;;-143.84;68.53;45003.38;5089429;28;20497;-57
2023/09/23 09:19:11;;;;;;;0.80;0.30;;;;;;;-143.84;67.10;44999.56;5089027;28;20891;-57
2023/09/23 09:21:41;;;;;;;0.80;0.33;;;;;;;-143.84;67.28;45030.03;5089348;28;20497;-57
2023/09/23 09:24:08;;;;;;;0.80;0.30;;;;;;;-143.84;66.98;45009.09;5089355;28;20452;-57
2023/09/23 09:26:38;;;;;;;0.80;0.30;;;;;;;-143.84;68.91;44988.13;5089526;28;20505;-57
2023/09/23 09:29:05;;;;;;;0.80;0.30;;;;;;;-143.84;68.23;45018.59;5089209;28;20837;-57
2023/09/23 09:31:35;;;;;;;0.80;0.30;;;;;;;-143.84;68.42;44995.75;5089195;28;20454;-57
2023/09/23 09:34:06;;;;;;;0.80;0.30;;;;;;;-143.84;66.93;44993.84;5089284;28;20505;-57
2023/09/23 09:36:35;;;;;;;0.80;0.40;;;;;;;-143.84;69.48;44982.41;5089045;28;20515;-57
2023/09/23 09:39:07;;;;;;;0.80;0.30;;;;;;;-143.84;69.60;44993.84;5088942;28;20541;-57
2023/09/23 09:41:45;;;;;;;0.80;0.30;;;;;;;-143.84;69.15;45012.88;5089228;28;21017;-57
2023/09/23 09:44:15;;;;;;;0.80;0.30;;;;;;;-143.84;69.11;45007.19;5089391;28;20428;-57
2023/09/23 09:46:43;;;;;;;0.80;0.40;;;;;;;-143.84;69.62;45018.59;5089025;28;20530;-57
2023/09/23 09:49:10;;;;;;;0.80;0.40;;;;;;;-143.84;70.06;45005.28;5088994;28;20796;-57
2023/09/23 09:51:42;;;;;;;0.80;0.50;;;;;;;-143.84;69.15;45033.84;5088960;28;20448;-57
2023/09/23 09:54:11;;;;;;;0.80;0.30;;;;;;;-143.84;68.55;45009.09;5088867;28;20489;-57
2023/09/23 09:56:40;;;;;;;0.80;0.40;;;;;;;-143.84;69.97;44999.56;5088807;28;21174;-57
2023/09/23 09:59:07;;;;;;;0.80;0.30;;;;;;;-143.84;69.59;45010.97;5088695;28;20475;-57
2023/09/23 10:01:36;;;;;;;0.80;0.30;;;;;;;-143.84;67.21;44978.63;5089297;28;20428;-57
2023/09/23 10:04:11;;;;;;;0.80;0.30;;;;;;;-143.84;69.35;44986.22;5088746;28;20442;-57
2023/09/23 10:06:42;;;;;;;0.80;0.30;;;;;;;-143.84;70.36;45018.59;5088846;28;20504;-57
2023/09/23 10:09:27;;;;;;;0.90;0.50;;;;;;;-143.84;69.69;45010.97;5088829;28;20444;-57
2023/09/23 10:11:56;;;;;;;0.80;0.30;;;;;;;-143.84;69.06;45007.19;5088612;28;20444;-57
2023/09/23 10:14:23;;;;;;;0.80;0.30;;;;;;;-143.84;69.64;44974.81;5088657;28;20442;-57
2023/09/23 10:16:52;;;;;;;0.80;0.30;;;;;;;-143.84;69.29;44993.84;5088622;28;20440;-58
2023/09/23 10:19:30;;;;;;;0.80;0.30;;;;;;;-143.84;68.46;45007.19;5088584;28;20533;-57
2023/09/23 10:22:12;;;;;;;0.80;0.30;;;;;;;-143.84;68.39;44997.66;5088516;28;20440;-57
2023/09/23 10:24:42;;;;;;;0.80;0.30;;;;;;;-143.84;66.96;45016.69;5088574;28;20549;-57
2023/09/23 10:27:11;;;;;;;0.80;0.30;;;;;;;-143.84;67.01;45014.78;5092542;28;20468;-57
2023/09/23 10:29:46;;;;;;;0.80;0.40;;;;;;;-143.84;68.32;44999.56;5092620;28;20514;-57
2023/09/23 10:32:14;;;;;;;0.80;0.30;;;;;;;-143.84;68.72;45050.97;5092856;28;20511;-57
2023/09/23 10:34:49;;;;;;;0.80;0.40;;;;;;;-143.84;69.09;45003.38;5092761;28;20503;-57
2023/09/23 10:37:30;;;;;;;1.00;0.47;;;;;;;-143.84;68.05;45039.53;5092789;28;20435;-57
2023/09/23 10:40:06;;;;;;;0.83;0.40;;;;;;;-143.84;67.95;44997.66;5092677;28;20570;-57
2023/09/23 10:42:35;;;;;;;0.80;0.30;;;;;;;-143.84;68.92;44986.22;5092159;28;20933;-57
2023/09/23 10:45:03;;;;;;;0.80;0.30;;;;;;;-143.84;67.63;45022.41;5092418;28;20969;-57
2023/09/23 10:47:30;;;;;;;0.80;0.30;;;;;;;-143.84;63.15;45009.09;5092225;28;20459;-57
2023/09/23 10:49:58;;;;;;;0.80;0.30;;;;;;;-143.84;69.84;45005.28;5092615;28;20455;-57
2023/09/23 10:52:25;;;;;;;0.80;0.30;;;;;;;-143.84;70.08;45030.03;5092415;28;20559;-57
2023/09/23 10:54:53;;;;;;;0.80;0.30;;;;;;;-143.84;67.52;44988.13;5092080;28;20474;-57
2023/09/23 10:57:23;;;;;;;0.80;0.30;;;;;;;-143.84;69.58;44984.31;5092298;28;20440;-57
2023/09/23 10:59:51;;;;;;;0.80;0.30;;;;;;;-143.84;70.56;45010.97;5091959;28;20869;-57
2023/09/23 11:02:20;;;;;;;0.80;0.30;;;;;;;-143.84;67.16;45007.19;5092014;28;20439;-57
2023/09/23 11:04:48;;;;;;;0.80;0.30;;;;;;;-143.84;66.88;45007.19;5091972;28;20432;-57
2023/09/23 11:07:16;;;;;;;0.80;0.40;;;;;;;-143.84;65.43;45024.31;5085237;28;20546;-57
2023/09/23 11:09:44;;;;;;;0.80;0.40;;;;;;;-143.84;63.97;45009.09;5074010;28;20522;-58
2023/09/23 11:12:13;;;;;;;0.90;0.40;;;;;;;-143.84;64.05;44980.53;5071427;28;20437;-57
2023/09/23 11:14:44;;;;;;;0.90;0.30;;;;;;;-143.84;60.35;44993.84;5071542;28;20444;-57
2023/09/23 11:17:21;;;;;;;0.90;0.40;;;;;;;-143.84;67.54;44995.75;5071518;28;20456;-58
2023/09/23 11:19:58;;;;;;;0.80;0.30;;;;;;;-143.84;65.83;45005.28;5072403;28;20529;-57